Time;durP1;ratioP1;P1;durP2;ratioP2;P2;SDS_P1;SDS_P2;PMS_P1;PMS_P2;Temp;Humidity;BMP_temperature;BMP_pressure;BME280_temperature;BME280_humidity;BME280_pressure;Samples;Min_cycle;Max_cycle;Signal;HPM_P1;HPM_P2
2023/12/01 00:02:24;;;;;;;64.32;44.22;;;;;;;-0.33;100.00;100338.38;4977826;28;20501;-77
2023/12/01 00:04:50;;;;;;;60.88;41.75;;;;;;;-0.35;100.00;100335.00;4968774;28;20031;-78
2023/12/01 00:07:16;;;;;;;60.28;42.60;;;;;;;-0.36;100.00;100338.47;4970062;28;20395;-77
2023/12/01 00:09:41;;;;;;;60.92;41.40;;;;;;;-0.37;100.00;100335.06;4973255;28;20031;-77
2023/12/01 00:12:07;;;;;;;64.00;43.13;;;;;;;-0.36;100.00;100347.06;4973302;28;20073;-78
2023/12/01 00:14:32;;;;;;;61.13;42.47;;;;;;;-0.38;100.00;100337.69;4972844;28;20030;-77
2023/12/01 00:16:58;;;;;;;32.22;12.93;;;;;;;-0.30;100.00;100346.00;4972801;28;20058;-77
2023/12/01 00:19:23;;;;;;;62.90;42.83;;;;;;;-0.43;100.00;100350.75;4976719;28;20471;-77
2023/12/01 00:21:49;;;;;;;62.63;43.25;;;;;;;-0.46;100.00;100347.44;4972404;28;20022;-78
2023/12/01 00:24:14;;;;;;;61.88;43.35;;;;;;;-0.44;100.00;100343.06;4973205;28;20394;-78
2023/12/01 00:26:40;;;;;;;61.70;43.42;;;;;;;-0.45;100.00;100354.31;4975404;28;20096;-78
2023/12/01 00:29:05;;;;;;;64.47;43.22;;;;;;;-0.46;100.00;100352.63;4963500;28;20390;-77
2023/12/01 00:31:31;;;;;;;66.65;44.45;;;;;;;-0.47;100.00;100350.94;4992026;28;20038;-79
2023/12/01 00:33:56;;;;;;;65.40;43.80;;;;;;;-0.46;100.00;100352.63;4978396;28;20105;-77
2023/12/01 00:36:21;;;;;;;63.85;44.33;;;;;;;-0.50;100.00;100351.91;4992061;28;20458;-77
2023/12/01 00:38:47;;;;;;;64.60;43.35;;;;;;;-0.50;100.00;100356.22;4992348;28;20687;-78
2023/12/01 00:41:12;;;;;;;68.95;45.13;;;;;;;-0.52;100.00;100356.28;4990667;28;20030;-78
2023/12/01 00:43:37;;;;;;;64.97;43.70;;;;;;;-0.52;100.00;100363.19;4992402;28;20030;-78
2023/12/01 00:46:04;;;;;;;64.05;43.05;;;;;;;-0.53;100.00;100364.91;4974233;28;20081;-78
2023/12/01 00:48:30;;;;;;;66.32;44.15;;;;;;;-0.54;100.00;100359.81;4992172;28;20026;-78
2023/12/01 00:50:56;;;;;;;68.18;44.85;;;;;;;-0.54;100.00;100362.41;4992261;28;20050;-78
2023/12/01 00:53:21;;;;;;;65.25;44.20;;;;;;;-0.52;100.00;100368.34;4991421;28;20513;-77
2023/12/01 00:55:47;;;;;;;67.90;45.10;;;;;;;-0.51;100.00;100373.47;4991684;28;20026;-77
2023/12/01 00:58:12;;;;;;;67.07;44.70;;;;;;;-0.53;100.00;100377.00;4992384;28;20097;-77
2023/12/01 01:00:39;;;;;;;64.78;42.08;;;;;;;-0.55;100.00;100373.63;4978954;28;20376;-77
2023/12/01 01:03:06;;;;;;;62.58;41.83;;;;;;;-0.55;100.00;100378.78;4973239;28;20035;-77
2023/12/01 01:05:31;;;;;;;63.35;41.22;;;;;;;-0.60;100.00;100372.97;4955945;28;20518;-77
2023/12/01 01:07:56;;;;;;;64.38;40.17;;;;;;;-0.64;100.00;100369.63;4972867;28;20022;-77
2023/12/01 01:10:22;;;;;;;66.55;42.90;;;;;;;-0.63;100.00;100377.34;4973098;28;20027;-77
2023/12/01 01:12:47;;;;;;;65.55;41.97;;;;;;;-0.63;100.00;100376.50;4973469;28;20026;-77
2023/12/01 01:15:13;;;;;;;64.53;41.88;;;;;;;-0.69;100.00;100387.88;4972117;28;20739;-77
2023/12/01 01:17:39;;;;;;;71.35;43.38;;;;;;;-0.69;100.00;100384.47;4973081;28;20026;-77
2023/12/01 01:20:04;;;;;;;68.53;43.65;;;;;;;-0.70;100.00;100383.63;4954700;28;20038;-76
2023/12/01 01:22:30;;;;;;;67.57;43.22;;;;;;;-0.71;100.00;100389.69;4985788;28;20026;-77
2023/12/01 01:24:55;;;;;;;68.28;42.83;;;;;;;-0.77;100.00;100389.91;4975132;28;20172;-77
2023/12/01 01:27:21;;;;;;;65.55;41.42;;;;;;;-0.73;100.00;100393.22;4991414;28;20045;-77
2023/12/01 01:29:46;;;;;;;68.80;42.70;;;;;;;-0.71;100.00;100394.84;4991343;28;20875;-77
2023/12/01 01:32:12;;;;;;;70.97;42.95;;;;;;;-0.72;100.00;100398.34;4973736;28;20364;-77
2023/12/01 01:34:38;;;;;;;39.03;12.02;;;;;;;-0.66;100.00;100398.09;4991267;28;20030;-77
2023/12/01 01:37:04;;;;;;;68.63;42.38;;;;;;;-0.72;100.00;100400.06;4990735;28;20046;-77
2023/12/01 01:39:29;;;;;;;71.03;42.78;;;;;;;-0.74;100.00;100394.13;4991500;28;20030;-77
2023/12/01 01:41:56;;;;;;;70.35;42.97;;;;;;;-0.77;100.00;100395.06;4989903;28;20025;-77
2023/12/01 01:44:21;;;;;;;20.38;8.63;;;;;;;-0.67;100.00;100403.34;4991118;28;20022;-76
2023/12/01 01:46:47;;;;;;;66.85;41.15;;;;;;;-0.80;100.00;100395.19;4991646;28;20572;-77
2023/12/01 01:49:12;;;;;;;70.18;43.60;;;;;;;-0.81;100.00;100393.47;4991018;28;20022;-77
2023/12/01 01:51:39;;;;;;;75.07;44.35;;;;;;;-0.81;100.00;100402.94;4990986;28;20093;-77
2023/12/01 01:54:05;;;;;;;76.70;44.72;;;;;;;-0.80;100.00;100396.88;4990908;28;20023;-77
2023/12/01 01:56:31;;;;;;;33.58;9.85;;;;;;;-0.74;100.00;100405.28;4988921;28;20494;-77
2023/12/01 01:59:00;;;;;;;31.83;10.57;;;;;;;-0.74;100.00;100410.47;4993772;28;20026;-78
2023/12/01 02:01:25;;;;;;;31.20;10.45;;;;;;;-0.74;100.00;100407.88;4982405;28;20026;-78
2023/12/01 02:03:54;;;;;;;36.28;11.35;;;;;;;-0.72;100.00;100415.56;4989092;28;20405;-78
2023/12/01 02:06:30;;;;;;;72.80;44.22;;;;;;;-0.83;100.00;100415.91;4973243;28;20033;-78
2023/12/01 02:08:56;;;;;;;70.78;42.90;;;;;;;-0.83;100.00;100415.06;4973797;28;20104;-78
2023/12/01 02:11:22;;;;;;;71.25;42.88;;;;;;;-0.88;100.00;100415.22;4989491;28;20035;-78
2023/12/01 02:13:47;;;;;;;71.00;43.38;;;;;;;-0.90;100.00;100417.03;4973471;28;20037;-78
2023/12/01 02:16:13;;;;;;;74.07;42.85;;;;;;;-0.95;100.00;100417.19;4990191;28;20045;-79
2023/12/01 02:18:38;;;;;;;72.03;43.20;;;;;;;-0.97;100.00;100415.53;4973005;28;20038;-78
2023/12/01 02:21:04;;;;;;;70.43;42.60;;;;;;;-0.99;100.00;100414.75;4991442;28;20025;-78
2023/12/01 02:23:29;;;;;;;73.15;42.53;;;;;;;-0.99;100.00;100420.75;4991746;28;20034;-77
2023/12/01 02:25:54;;;;;;;36.45;12.95;;;;;;;-0.88;100.00;100428.13;4990642;28;20454;-77
2023/12/01 02:28:20;;;;;;;74.43;42.72;;;;;;;-0.95;100.00;100424.09;4973079;28;20022;-77
2023/12/01 02:31:03;;;;;;;79.55;43.72;;;;;;;-0.93;100.00;100432.63;4991631;28;20031;-77
2023/12/01 02:33:29;;;;;;;76.07;43.05;;;;;;;-1.01;100.00;100419.13;4990881;28;20030;-76
2023/12/01 02:35:54;;;;;;;36.83;12.80;;;;;;;-0.93;100.00;100435.19;4974135;28;20026;-78
2023/12/01 02:38:20;;;;;;;73.22;41.70;;;;;;;-1.04;100.00;100427.81;4989943;28;20677;-77
2023/12/01 02:40:49;;;;;;;29.13;11.20;;;;;;;-0.99;100.00;100430.25;4974025;28;20022;-77
2023/12/01 02:43:19;;;;;;;72.57;41.60;;;;;;;-1.15;100.00;100431.66;4990803;28;20030;-77
2023/12/01 02:45:45;;;;;;;42.90;13.57;;;;;;;-1.07;100.00;100421.91;4973403;28;20114;-78
2023/12/01 02:48:10;;;;;;;33.80;11.23;;;;;;;-1.07;100.00;100427.94;4972990;28;20073;-77
2023/12/01 02:50:36;;;;;;;78.45;43.78;;;;;;;-1.16;100.00;100424.81;4973355;28;20018;-77
2023/12/01 02:53:03;;;;;;;76.63;44.30;;;;;;;-1.16;100.00;100424.81;4972265;28;20077;-77
2023/12/01 02:55:28;;;;;;;37.28;11.90;;;;;;;-1.06;100.00;100428.75;4972797;28;20287;-78
2023/12/01 02:57:54;;;;;;;77.97;43.55;;;;;;;-1.16;100.00;100433.41;4990604;28;20023;-78
2023/12/01 03:00:22;;;;;;;81.93;44.38;;;;;;;-1.19;100.00;100423.16;4987502;28;20116;-78
2023/12/01 03:02:48;;;;;;;86.65;48.05;;;;;;;-1.19;100.00;100422.31;4990267;28;20406;-78
2023/12/01 03:05:13;;;;;;;53.60;16.38;;;;;;;-1.10;100.00;100427.19;4972196;28;20026;-79
2023/12/01 03:07:39;;;;;;;41.47;12.43;;;;;;;-1.11;100.00;100425.50;4989037;28;20034;-77
2023/12/01 03:10:09;;;;;;;82.65;45.53;;;;;;;-1.16;100.00;100427.38;4989457;28;20526;-77
2023/12/01 03:12:35;;;;;;;80.93;46.35;;;;;;;-1.19;100.00;100423.16;4989406;28;20045;-78
2023/12/01 03:15:01;;;;;;;80.97;45.30;;;;;;;-1.18;100.00;100424.00;4971234;28;20026;-77
2023/12/01 03:17:26;;;;;;;45.17;12.98;;;;;;;-1.10;100.00;100429.75;4989730;28;20077;-77
2023/12/01 03:19:52;;;;;;;39.42;13.15;;;;;;;-1.08;100.00;100423.66;4970267;28;20026;-77
2023/12/01 03:22:18;;;;;;;39.03;10.68;;;;;;;-1.06;100.00;100433.94;4992833;28;20022;-77
2023/12/01 03:24:47;;;;;;;81.45;44.97;;;;;;;-1.14;100.00;100426.44;5007771;28;20032;-77
2023/12/01 03:27:19;;;;;;;48.47;13.50;;;;;;;-1.05;100.00;100435.63;5008843;28;20113;-77
2023/12/01 03:29:45;;;;;;;;;;;;;;;-1.01;100.00;100432.03;5009597;28;20037;-77
2023/12/01 03:32:11;;;;;;;89.05;48.28;;;;;;;-1.10;100.00;100438.34;5009089;28;20015;-77
2023/12/01 03:34:36;;;;;;;89.05;46.67;;;;;;;-1.08;100.00;100430.56;4993006;28;20026;-77
2023/12/01 03:37:03;;;;;;;85.32;45.78;;;;;;;-1.13;100.00;100432.44;4989776;28;20078;-77
2023/12/01 03:39:30;;;;;;;39.67;11.85;;;;;;;-1.03;100.00;100428.66;4990199;28;20097;-77
2023/12/01 03:41:55;;;;;;;90.80;46.40;;;;;;;-1.13;100.00;100429.88;4990249;28;20022;-77
2023/12/01 03:44:20;;;;;;;40.72;12.13;;;;;;;-1.04;100.00;100437.31;4991815;28;20454;-77
2023/12/01 03:46:47;;;;;;;51.55;12.35;;;;;;;-1.03;100.00;100444.16;4994559;28;20034;-77
2023/12/01 03:49:12;;;;;;;87.47;46.08;;;;;;;-1.05;100.00;100440.78;4993267;28;20089;-77
2023/12/01 03:51:38;;;;;;;91.03;47.88;;;;;;;-1.10;100.00;100440.09;4994092;28;20061;-77
2023/12/01 03:54:03;;;;;;;94.95;47.65;;;;;;;-1.10;100.00;100440.94;4993445;28;20044;-77
2023/12/01 03:56:29;;;;;;;100.15;49.40;;;;;;;-1.11;100.00;100440.97;4993165;28;20050;-77
2023/12/01 03:58:55;;;;;;;100.28;49.72;;;;;;;-1.10;100.00;100443.50;4994754;28;20029;-77
2023/12/01 04:01:21;;;;;;;101.22;49.55;;;;;;;-1.11;100.00;100451.31;4971829;28;20033;-77
2023/12/01 04:03:46;;;;;;;106.20;52.35;;;;;;;-1.09;100.00;100449.53;4990491;28;20026;-79
2023/12/01 04:06:12;;;;;;;107.75;52.90;;;;;;;-1.05;100.00;100456.28;4993278;28;20073;-79
2023/12/01 04:08:38;;;;;;;104.50;50.80;;;;;;;-1.08;100.00;100456.38;4991763;28;20030;-77
2023/12/01 04:11:04;;;;;;;114.10;54.65;;;;;;;-1.09;100.00;100454.69;4990666;28;20035;-77
2023/12/01 04:13:29;;;;;;;117.38;53.60;;;;;;;-1.08;100.00;100459.78;4975465;28;20470;-77
2023/12/01 04:15:55;;;;;;;115.80;54.83;;;;;;;-1.09;100.00;100459.84;4993429;28;20043;-77
2023/12/01 04:18:20;;;;;;;48.33;13.55;;;;;;;-1.02;100.00;100472.50;4974311;28;20030;-78
2023/12/01 04:20:46;;;;;;;41.45;13.32;;;;;;;-1.01;100.00;100481.09;4993178;28;20038;-78
2023/12/01 04:23:12;;;;;;;51.65;11.68;;;;;;;-1.05;100.00;100477.75;4992595;28;20084;-78
2023/12/01 04:25:38;;;;;;;49.55;12.45;;;;;;;-1.08;100.00;100475.28;4974179;28;20026;-78
2023/12/01 04:28:04;;;;;;;42.75;12.25;;;;;;;-1.10;100.00;100479.66;4974707;28;20042;-77
2023/12/01 04:30:30;;;;;;;107.50;48.47;;;;;;;-1.24;100.00;100476.66;4992433;28;20038;-78
2023/12/01 04:32:59;;;;;;;103.90;47.58;;;;;;;-1.27;100.00;100492.22;4992547;28;20161;-78
2023/12/01 04:35:32;;;;;;;108.25;47.40;;;;;;;-1.29;100.00;100492.28;4992649;28;20027;-78
2023/12/01 04:38:00;;;;;;;103.35;47.63;;;;;;;-1.32;100.00;100492.38;4970959;28;20057;-79
2023/12/01 04:40:27;;;;;;;94.07;45.42;;;;;;;-1.34;100.00;100494.16;4973535;28;20054;-79
2023/12/01 04:42:57;;;;;;;101.93;47.70;;;;;;;-1.43;100.00;100502.19;4973059;28;20077;-77
2023/12/01 04:45:27;;;;;;;106.38;48.65;;;;;;;-1.44;100.00;100500.50;4971684;28;20031;-77
2023/12/01 04:47:55;;;;;;;48.08;12.15;;;;;;;-1.35;100.00;100497.63;4972840;28;20391;-77
2023/12/01 04:50:25;;;;;;;55.63;13.68;;;;;;;-1.35;100.00;100500.22;4972982;28;20090;-77
2023/12/01 04:52:53;;;;;;;40.97;10.95;;;;;;;-1.35;100.00;100505.38;4972611;28;20031;-77
2023/12/01 04:55:20;;;;;;;50.63;12.93;;;;;;;-1.32;100.00;100504.44;4971939;28;20027;-77
2023/12/01 04:57:46;;;;;;;113.63;51.17;;;;;;;-1.35;100.00;100505.38;4972387;28;20114;-77
2023/12/01 05:00:19;;;;;;;117.82;52.13;;;;;;;-1.33;100.00;100507.91;4972500;28;20116;-77
2023/12/01 05:03:06;;;;;;;128.75;54.75;;;;;;;-1.34;100.00;100513.97;4988674;28;20039;-77
2023/12/01 05:05:33;;;;;;;134.50;56.92;;;;;;;-1.36;100.00;100516.59;4972045;28;20471;-77
2023/12/01 05:08:01;;;;;;;62.17;14.48;;;;;;;-1.28;100.00;100522.34;4972487;28;20220;-77
2023/12/01 05:10:28;;;;;;;35.95;12.07;;;;;;;-1.26;100.00;100520.56;4972306;28;20037;-77
2023/12/01 05:12:56;;;;;;;125.35;53.75;;;;;;;-1.28;100.00;100517.19;4971837;28;20034;-77
2023/12/01 05:15:27;;;;;;;46.28;12.75;;;;;;;-1.19;100.00;100528.16;4971786;28;20482;-77
2023/12/01 05:17:58;;;;;;;67.23;16.93;;;;;;;-1.18;100.00;100522.09;4972669;28;20041;-77
2023/12/01 05:20:27;;;;;;;44.83;13.55;;;;;;;-1.17;100.00;100531.53;4970294;28;20029;-77
2023/12/01 05:22:54;;;;;;;58.25;13.45;;;;;;;-1.18;100.00;100530.69;4971023;28;20031;-77
2023/12/01 05:25:21;;;;;;;118.55;54.30;;;;;;;-1.30;100.00;100533.63;4971852;28;20101;-78
2023/12/01 05:27:51;;;;;;;121.63;55.58;;;;;;;-1.32;100.00;100536.25;4971810;28;20023;-78
2023/12/01 05:30:19;;;;;;;123.38;56.00;;;;;;;-1.32;100.00;100531.06;4971628;28;20035;-78
2023/12/01 05:32:46;;;;;;;70.20;16.52;;;;;;;-1.21;100.00;100537.63;4971131;28;20053;-77
2023/12/01 05:35:12;;;;;;;45.33;12.25;;;;;;;-1.18;100.00;100542.75;4970250;28;20089;-78
2023/12/01 05:37:46;;;;;;;53.83;12.45;;;;;;;-1.16;100.00;100546.97;4985683;28;20144;-78
2023/12/01 05:40:14;;;;;;;130.60;56.97;;;;;;;-1.18;100.00;100542.75;4991291;28;20030;-77
2023/12/01 05:42:41;;;;;;;58.83;15.68;;;;;;;-1.11;100.00;100547.66;4973261;28;20021;-78
2023/12/01 05:45:11;;;;;;;123.75;57.95;;;;;;;-1.20;100.00;100537.63;4991267;28;20022;-78
2023/12/01 05:47:46;;;;;;;60.00;14.73;;;;;;;-1.10;100.00;100556.25;4991392;28;20030;-78
2023/12/01 05:50:16;;;;;;;62.90;15.52;;;;;;;-1.08;100.00;100555.31;4990290;28;20034;-78
2023/12/01 05:52:42;;;;;;;52.40;14.48;;;;;;;-1.06;100.00;100557.84;4991671;28;20565;-78
2023/12/01 05:55:15;;;;;;;61.75;16.42;;;;;;;-1.05;100.00;100555.22;4991351;28;20057;-78
2023/12/01 05:57:43;;;;;;;135.68;61.50;;;;;;;-1.14;100.00;100560.66;4992021;28;20056;-78
2023/12/01 06:00:17;;;;;;;134.65;63.17;;;;;;;-1.15;100.00;100556.41;4973978;28;20034;-78
2023/12/01 06:02:45;;;;;;;123.90;61.22;;;;;;;-1.16;100.00;100557.28;4974227;28;20490;-78
2023/12/01 06:05:11;;;;;;;119.78;60.00;;;;;;;-1.11;100.00;100570.91;4991817;28;20054;-78
2023/12/01 06:07:37;;;;;;;112.60;59.47;;;;;;;-1.13;100.00;100558.94;4991642;28;20043;-78
2023/12/01 06:10:05;;;;;;;53.13;13.73;;;;;;;-1.04;100.00;100563.81;4990624;28;20026;-78
2023/12/01 06:12:32;;;;;;;96.43;52.90;;;;;;;-1.13;100.00;100564.09;4991519;28;20022;-78
2023/12/01 06:14:58;;;;;;;96.28;52.55;;;;;;;-1.11;100.00;100557.16;4991821;28;20101;-78
2023/12/01 06:17:23;;;;;;;40.75;13.13;;;;;;;-1.04;100.00;100559.47;4973455;28;20790;-79
2023/12/01 06:19:48;;;;;;;47.33;14.98;;;;;;;-1.04;100.00;100566.38;4991640;28;20018;-78
2023/12/01 06:22:14;;;;;;;86.45;50.90;;;;;;;-1.11;100.00;100555.41;4991432;28;20019;-79
2023/12/01 06:24:39;;;;;;;89.85;52.03;;;;;;;-1.10;100.00;100561.41;4990656;28;20049;-78
2023/12/01 06:27:04;;;;;;;93.32;51.10;;;;;;;-1.06;100.00;100568.16;4991268;28;20022;-78
2023/12/01 06:29:30;;;;;;;87.15;50.80;;;;;;;-1.07;100.00;100561.31;4973652;28;20026;-78
2023/12/01 06:31:56;;;;;;;91.53;51.05;;;;;;;-1.07;100.00;100571.66;4990816;28;20030;-78
2023/12/01 06:34:21;;;;;;;85.07;50.30;;;;;;;-1.04;100.00;100576.72;4989986;28;20092;-78
2023/12/01 06:36:47;;;;;;;85.60;50.17;;;;;;;-1.04;100.00;100571.53;4990600;28;20058;-79
2023/12/01 06:39:13;;;;;;;80.70;50.35;;;;;;;-1.03;100.00;100573.25;4989249;28;20030;-78
2023/12/01 06:41:41;;;;;;;82.57;50.33;;;;;;;-1.02;100.00;100582.66;4990403;28;20486;-78
2023/12/01 06:44:07;;;;;;;79.25;48.38;;;;;;;-1.01;100.00;100581.78;4990206;28;20032;-77
2023/12/01 06:46:32;;;;;;;77.28;47.95;;;;;;;-1.01;100.00;100584.34;4989612;28;20030;-76
2023/12/01 06:48:58;;;;;;;75.00;46.45;;;;;;;-1.01;100.00;100582.63;4972780;28;20385;-77
2023/12/01 06:51:24;;;;;;;74.00;45.65;;;;;;;-1.01;100.00;100581.78;4989305;28;20037;-77
2023/12/01 06:53:49;;;;;;;43.42;13.88;;;;;;;-0.93;100.00;100582.38;4990122;28;20034;-77
2023/12/01 06:56:17;;;;;;;45.28;12.95;;;;;;;-0.92;100.00;100591.81;4972512;28;20030;-77
2023/12/01 06:58:43;;;;;;;76.32;46.70;;;;;;;-0.97;100.00;100589.38;4989540;28;20136;-76
2023/12/01 07:01:11;;;;;;;73.38;45.25;;;;;;;-0.96;100.00;100585.91;4989668;28;20046;-77
2023/12/01 07:03:37;;;;;;;71.07;44.50;;;;;;;-0.95;100.00;100586.75;4990078;28;20030;-77
2023/12/01 07:06:03;;;;;;;73.43;45.97;;;;;;;-0.95;100.00;100591.91;4989105;28;20109;-77
2023/12/01 07:08:28;;;;;;;69.20;41.88;;;;;;;-0.93;100.00;100600.44;4990097;28;20044;-77
2023/12/01 07:10:54;;;;;;;65.20;42.08;;;;;;;-0.92;100.00;100599.56;4988837;28;20100;-77
2023/12/01 07:13:19;;;;;;;70.47;42.53;;;;;;;-0.92;100.00;100596.97;4989132;28;20022;-77
2023/12/01 07:15:45;;;;;;;67.82;43.30;;;;;;;-0.90;100.00;100599.50;4990885;28;20026;-77
2023/12/01 07:18:10;;;;;;;66.18;41.78;;;;;;;-0.86;100.00;100601.94;4989683;28;20022;-77
2023/12/01 07:20:36;;;;;;;73.90;44.92;;;;;;;-0.86;100.00;100604.53;4989327;28;20537;-77
2023/12/01 07:23:01;;;;;;;67.63;42.35;;;;;;;-0.85;100.00;100608.81;4990544;28;20057;-77
2023/12/01 07:25:26;;;;;;;64.82;41.03;;;;;;;-0.82;100.00;100607.88;4973036;28;20023;-77
2023/12/01 07:28:03;;;;;;;66.85;41.40;;;;;;;-0.83;100.00;100612.19;4990119;28;20101;-77
2023/12/01 07:30:28;;;;;;;64.80;40.80;;;;;;;-0.80;100.00;100612.13;4990251;28;20022;-78
2023/12/01 07:32:55;;;;;;;62.67;38.28;;;;;;;-0.76;100.00;100608.53;4990891;28;20501;-77
2023/12/01 07:35:20;;;;;;;62.78;39.72;;;;;;;-0.76;100.00;100608.53;4971851;28;20033;-77
2023/12/01 07:37:47;;;;;;;62.53;39.78;;;;;;;-0.77;100.00;100606.84;4990526;28;20491;-77
2023/12/01 07:40:19;;;;;;;62.17;39.67;;;;;;;-0.76;100.00;100607.69;4988863;28;20367;-77
2023/12/01 07:42:45;;;;;;;65.65;40.00;;;;;;;-0.72;100.00;100610.13;4989782;28;20034;-77
2023/12/01 07:45:14;;;;;;;64.30;40.92;;;;;;;-0.74;100.00;100611.91;4972416;28;20554;-77
2023/12/01 07:47:39;;;;;;;32.97;11.82;;;;;;;-0.64;100.00;100615.91;4989072;28;20057;-77
2023/12/01 07:50:05;;;;;;;63.90;40.00;;;;;;;-0.68;100.00;100605.72;4988861;28;20471;-77
2023/12/01 07:52:32;;;;;;;65.93;41.70;;;;;;;-0.66;100.00;100607.34;4989710;28;20034;-77
2023/12/01 07:55:00;;;;;;;31.38;10.20;;;;;;;-0.55;100.00;100606.16;4986925;28;20034;-77
2023/12/01 07:57:25;;;;;;;34.60;11.00;;;;;;;-0.54;100.00;100607.84;4988192;28;20080;-78
2023/12/01 07:59:50;;;;;;;67.85;40.88;;;;;;;-0.60;100.00;100608.88;4989807;28;20030;-78
2023/12/01 08:02:16;;;;;;;67.20;41.70;;;;;;;-0.64;100.00;100607.31;4988164;28;20445;-78
2023/12/01 08:04:41;;;;;;;66.15;42.20;;;;;;;-0.59;100.00;100610.59;4989506;28;20470;-78
2023/12/01 08:07:07;;;;;;;66.30;42.05;;;;;;;-0.59;100.00;100614.91;4989344;28;20034;-78
2023/12/01 08:09:33;;;;;;;70.57;42.13;;;;;;;-0.62;100.00;100613.25;4987673;28;20105;-78
2023/12/01 08:11:58;;;;;;;65.50;41.63;;;;;;;-0.57;100.00;100602.78;4988113;28;20030;-78
2023/12/01 08:14:25;;;;;;;67.75;41.78;;;;;;;-0.55;100.00;100607.00;4989600;28;20046;-78
2023/12/01 08:16:50;;;;;;;66.53;41.58;;;;;;;-0.58;100.00;100609.69;4989259;28;20022;-78
2023/12/01 08:19:16;;;;;;;66.28;40.90;;;;;;;-0.53;100.00;100612.13;4971455;28;20045;-78
2023/12/01 08:21:41;;;;;;;67.03;41.63;;;;;;;-0.55;100.00;100619.06;4989347;28;20497;-78
2023/12/01 08:24:07;;;;;;;68.78;41.70;;;;;;;-0.54;100.00;100623.34;4987224;28;20034;-78
2023/12/01 08:26:32;;;;;;;70.20;42.17;;;;;;;-0.50;100.00;100622.34;4989781;28;20023;-78
2023/12/01 08:28:58;;;;;;;71.32;42.58;;;;;;;-0.48;100.00;100628.31;4989808;28;20022;-78
2023/12/01 08:31:24;;;;;;;70.07;42.22;;;;;;;-0.49;100.00;100629.22;4975048;28;20100;-78
2023/12/01 08:33:49;;;;;;;66.75;41.08;;;;;;;-0.45;100.00;100634.22;4993450;28;20390;-78
2023/12/01 08:36:15;;;;;;;65.32;39.80;;;;;;;-0.43;100.00;100636.75;4993082;28;20062;-78
2023/12/01 08:38:44;;;;;;;64.90;40.55;;;;;;;-0.43;100.00;100639.34;4992863;28;20455;-78
2023/12/01 08:41:09;;;;;;;66.60;40.45;;;;;;;-0.41;100.00;100637.56;4993181;28;20022;-78
2023/12/01 08:43:35;;;;;;;66.43;41.45;;;;;;;-0.45;100.00;100644.56;4993229;28;20727;-77
2023/12/01 08:46:00;;;;;;;65.95;40.33;;;;;;;-0.43;100.00;100641.94;4992586;28;20033;-78
2023/12/01 08:48:25;;;;;;;65.72;40.45;;;;;;;-0.40;100.00;100641.81;4992071;28;20023;-78
2023/12/01 08:50:51;;;;;;;63.45;39.85;;;;;;;-0.37;100.00;100647.78;4992275;28;20033;-78
2023/12/01 08:53:17;;;;;;;67.70;41.40;;;;;;;-0.39;100.00;100651.31;4992704;28;20461;-78
2023/12/01 08:55:42;;;;;;;67.35;41.20;;;;;;;-0.39;100.00;100643.56;4975660;28;20038;-78
2023/12/01 08:58:07;;;;;;;64.85;39.83;;;;;;;-0.39;100.00;100643.56;4991724;28;20026;-79
2023/12/01 09:00:34;;;;;;;67.07;40.90;;;;;;;-0.35;100.00;100639.97;4992261;28;20034;-78
2023/12/01 09:03:00;;;;;;;62.42;39.22;;;;;;;-0.35;100.00;100640.81;4991151;28;20126;-78
2023/12/01 09:05:26;;;;;;;67.43;40.63;;;;;;;-0.32;100.00;100647.63;4974337;28;20109;-79
2023/12/01 09:07:51;;;;;;;66.50;39.67;;;;;;;-0.30;100.00;100650.16;4992819;28;20041;-78
2023/12/01 09:10:19;;;;;;;62.25;38.33;;;;;;;-0.29;100.00;100655.28;4991844;28;20445;-79
2023/12/01 09:12:45;;;;;;;61.42;37.45;;;;;;;-0.26;100.00;100650.00;4974377;28;20046;-78
2023/12/01 09:15:11;;;;;;;59.08;37.45;;;;;;;-0.23;100.00;100649.06;4974517;28;20555;-78
2023/12/01 09:17:37;;;;;;;64.10;38.15;;;;;;;-0.21;100.00;100653.28;4974478;28;20027;-79
2023/12/01 09:20:02;;;;;;;55.20;33.28;;;;;;;-0.20;100.00;100654.97;4991174;28;20069;-79
2023/12/01 09:22:28;;;;;;;49.20;32.75;;;;;;;-0.17;100.00;100656.59;4991834;28;20038;-78
2023/12/01 09:24:53;;;;;;;48.30;31.15;;;;;;;-0.14;100.00;100672.00;4996305;28;20030;-78
2023/12/01 09:27:19;;;;;;;51.88;32.15;;;;;;;-0.16;100.00;100666.91;5010185;28;20021;-79
2023/12/01 09:29:45;;;;;;;47.95;29.88;;;;;;;-0.08;100.00;100674.41;5006163;28;20053;-78
2023/12/01 09:32:10;;;;;;;43.70;29.38;;;;;;;-0.09;100.00;100673.56;4992235;28;20065;-77
2023/12/01 09:34:35;;;;;;;38.92;27.10;;;;;;;-0.09;100.00;100670.97;4975666;28;20497;-77
2023/12/01 09:37:01;;;;;;;39.33;26.63;;;;;;;-0.10;100.00;100671.88;4972931;28;20050;-77
2023/12/01 09:39:26;;;;;;;42.55;27.08;;;;;;;-0.08;100.00;100677.81;4973068;28;20026;-77
2023/12/01 09:41:53;;;;;;;40.08;26.73;;;;;;;-0.06;100.00;100673.44;4991206;28;20474;-77
2023/12/01 09:44:18;;;;;;;38.22;25.90;;;;;;;-0.08;100.00;100683.00;5011471;28;20387;-78
2023/12/01 09:46:46;;;;;;;36.22;25.17;;;;;;;-0.07;100.00;100687.28;5010671;28;20083;-78
2023/12/01 09:49:12;;;;;;;39.22;26.10;;;;;;;-0.07;100.00;100692.44;5010665;28;20030;-77
2023/12/01 09:51:37;;;;;;;37.92;25.77;;;;;;;-0.06;100.00;100695.88;5010155;28;20033;-78
2023/12/01 09:54:03;;;;;;;38.40;26.25;;;;;;;-0.05;100.00;100689.81;5000223;28;20034;-78
2023/12/01 09:56:30;;;;;;;36.38;26.05;;;;;;;-0.02;100.00;100695.72;4991735;28;20034;-78
2023/12/01 09:58:56;;;;;;;35.47;25.23;;;;;;;-0.01;100.00;100693.97;4990986;28;20161;-78
2023/12/01 10:01:23;;;;;;;35.00;25.48;;;;;;;-0.01;100.00;100697.41;4991064;28;20445;-78
2023/12/01 10:03:48;;;;;;;36.72;26.02;;;;;;;0.00;100.00;100687.94;4990416;28;20157;-78
2023/12/01 10:06:13;;;;;;;36.05;25.50;;;;;;;0.04;100.00;100686.09;4991089;28;20117;-78
2023/12/01 10:08:40;;;;;;;39.63;25.88;;;;;;;0.10;100.00;100686.72;4989327;28;20033;-78
2023/12/01 10:11:21;;;;;;;36.03;25.85;;;;;;;0.13;100.00;100689.22;4991006;28;20037;-78
2023/12/01 10:13:49;;;;;;;35.35;25.08;;;;;;;0.15;100.00;100689.16;4971967;28;20485;-78
2023/12/01 10:16:18;;;;;;;35.30;24.42;;;;;;;0.15;100.00;100697.75;4953502;28;20037;-78
2023/12/01 10:19:06;;;;;;;34.88;24.98;;;;;;;0.18;100.00;100691.66;4988607;28;20022;-78
2023/12/01 10:21:43;;;;;;;34.47;25.23;;;;;;;0.15;100.00;100692.59;5010357;28;20025;-78
2023/12/01 10:24:21;;;;;;;35.33;25.70;;;;;;;0.19;100.00;100688.16;5008312;28;20026;-78
2023/12/01 10:26:49;;;;;;;35.70;26.05;;;;;;;0.21;100.00;100686.38;5009450;28;20643;-78
2023/12/01 10:29:35;;;;;;;33.90;25.42;;;;;;;0.31;100.00;100695.50;5009755;28;20026;-78
2023/12/01 10:32:03;;;;;;;34.20;25.05;;;;;;;0.24;100.00;100689.69;5009839;28;20397;-79
2023/12/01 10:34:28;;;;;;;38.63;26.15;;;;;;;0.25;100.00;100693.13;4994697;28;20030;-78
2023/12/01 10:36:55;;;;;;;36.55;25.50;;;;;;;0.27;100.00;100699.94;4973324;28;20046;-78
2023/12/01 10:39:24;;;;;;;34.25;25.50;;;;;;;0.27;100.00;100691.31;4990745;28;20163;-78
2023/12/01 10:41:50;;;;;;;35.60;25.58;;;;;;;0.23;100.00;100689.75;4991540;28;20033;-78
2023/12/01 10:44:22;;;;;;;33.17;24.35;;;;;;;0.25;100.00;100683.63;4990396;28;20026;-78
2023/12/01 10:46:48;;;;;;;20.30;7.40;;;;;;;0.37;100.00;100692.69;4974233;28;20273;-78
2023/12/01 10:49:17;;;;;;;35.38;25.27;;;;;;;0.34;100.00;100687.63;4973196;28;20030;-78
2023/12/01 10:51:43;;;;;;;36.53;25.48;;;;;;;0.37;100.00;100684.94;4990265;28;20030;-78
2023/12/01 10:54:13;;;;;;;34.30;24.55;;;;;;;0.30;100.00;100689.47;4990340;28;20026;-78
2023/12/01 10:57:03;;;;;;;34.97;24.67;;;;;;;0.31;100.00;100687.72;4990968;28;20113;-78
2023/12/01 10:59:28;;;;;;;31.85;24.23;;;;;;;0.31;100.00;100692.91;4990044;28;20165;-78
2023/12/01 11:01:57;;;;;;;34.20;24.90;;;;;;;0.28;100.00;100682.66;4991376;28;20102;-78